»·PEaware :: N465TW KRDD-KMFR

N465TW :: KRDD-KMFR

FLIGHT INFORMATION

Flight Status: Arrived
Operator: Privately registered:
United States
More flights under this callsign
Pilot: Jose A. (17505)
Aircraft: BOEING 737-200
(B732)
More flights by this aircraft type
Origin: KRDD Redding Mun
United States
Destination: KMFR Rogue Valley Intl-Medford
United States
More flights between these airports :: More routes between these airports
Route: +SHA3 RDD FJS
File this flight plan on PilotEdge
Remarks: DOF / 180727 REG / N465TW EET / KZSE0012 RVR / 550 PER / C
Altitude:
(Current/Filed)
18,000ft
Speed:
(Current/Filed)
384kts
Departed: 27-Jul-18 12:27 PM
Arrived: 27-Jul-18 01:01 PM
Distance/Time
Traveled:
115nm/0:34
Distance/Time
To Go:
Arrived

Flight Plot

Page will automatically refresh every two minutes.

Flight plan parsing failed; only flown route is shown


Map Options




Map Legend


Flown Route
Filed Route
Departure Airport
Arrival Airport
Navaid (VOR, NDB)
Fix

Horizontal Profiles

Position Reports

Time Latitude Longitude Heading Altitude Ground
Speed
27-Jul-18 12:10 40.505334 -122.298969 314 466ft 0kts
27-Jul-18 12:11 40.505334 -122.298969 314 466ft 0kts
27-Jul-18 12:12 40.505334 -122.298969 314 466ft 0kts
27-Jul-18 12:13 40.505334 -122.298969 314 466ft 0kts
27-Jul-18 12:14 40.505334 -122.298969 314 466ft 0kts
27-Jul-18 12:15 40.505334 -122.298969 314 466ft 0kts
27-Jul-18 12:16 40.505334 -122.298969 314 466ft 0kts
27-Jul-18 12:17 40.505334 -122.298969 314 466ft 0kts
27-Jul-18 12:18 40.505334 -122.298969 314 466ft 0kts
27-Jul-18 12:19 40.505334 -122.298969 314 466ft 0kts
27-Jul-18 12:20 40.505334 -122.298969 314 466ft 0kts
27-Jul-18 12:21 40.505272 -122.298621 250 466ft 2kts
27-Jul-18 12:22 40.505736 -122.298409 175 466ft 0kts
27-Jul-18 12:23 40.505736 -122.298409 175 466ft 0kts
27-Jul-18 12:24 40.505736 -122.298409 175 466ft 0kts
27-Jul-18 12:25 40.505672 -122.298402 175 466ft 3kts
27-Jul-18 12:26 40.501971 -122.296005 134 466ft 4kts
27-Jul-18 12:27 40.501468 -122.294848 356 466ft 6kts
27-Jul-18 12:28 40.532884 -122.294387 2 1251ft 176kts
27-Jul-18 12:29 40.590608 -122.296129 356 2982ft 270kts
27-Jul-18 12:30 40.664613 -122.301012 356 6843ft 276kts
27-Jul-18 12:31 40.741693 -122.306941 331 10029ft 287kts
27-Jul-18 12:32 40.818589 -122.367102 329 11970ft 337kts
27-Jul-18 12:33 40.902896 -122.426518 329 14510ft 353kts
27-Jul-18 12:34 40.991466 -122.487806 329 16127ft 387kts
27-Jul-18 12:35 41.092706 -122.557817 329 16214ft 429kts
27-Jul-18 12:36 41.193417 -122.627616 329 16204ft 428kts
27-Jul-18 12:37 41.294219 -122.697760 329 16209ft 421kts
27-Jul-18 12:38 41.397065 -122.769633 329 16083ft 421kts
27-Jul-18 12:39 41.498934 -122.840996 329 16046ft 419kts
27-Jul-18 12:40 41.599269 -122.911354 329 15999ft 387kts
27-Jul-18 12:41 41.689159 -122.974512 329 14388ft 361kts
27-Jul-18 12:42 41.779164 -123.019909 345 12428ft 353kts
27-Jul-18 12:43 41.868920 -123.030759 3 12025ft 300kts
27-Jul-18 12:44 41.948215 -123.020617 3 12048ft 287kts
27-Jul-18 12:45 42.029245 -123.010300 3 12000ft 296kts
27-Jul-18 12:46 42.109361 -123.000091 3 11984ft 294kts
27-Jul-18 12:47 42.188559 -122.987149 5 10495ft 293kts
27-Jul-18 12:48 42.260795 -123.013489 334 9981ft 250kts
27-Jul-18 12:49 42.322739 -123.048823 334 10003ft 241kts
27-Jul-18 12:50 42.390735 -123.088042 334 10005ft 284kts
27-Jul-18 12:51 42.464742 -123.131202 334 9462ft 291kts
27-Jul-18 12:52 42.537893 -123.174070 334 8087ft 285kts
27-Jul-18 12:53 42.609220 -123.215749 342 8156ft 276kts
27-Jul-18 12:54 42.669296 -123.161915 64 7269ft 284kts
27-Jul-18 12:55 42.694339 -123.067097 100 7271ft 268kts
27-Jul-18 12:56 42.644415 -123.014924 161 6811ft 234kts
27-Jul-18 12:57 42.582719 -122.982549 159 5557ft 238kts
27-Jul-18 12:58 42.521739 -122.950415 157 4236ft 233kts
27-Jul-18 12:59 42.472920 -122.924738 160 3104ft 145kts
27-Jul-18 13:00 42.434447 -122.904632 160 2370ft 156kts
27-Jul-18 13:01 42.396281 -122.884370 160 1555ft 147kts
27-Jul-18 13:02 42.369321 -122.870290 165 1324ft 13kts
27-Jul-18 13:03 42.369143 -122.872808 304 1320ft 4kts
27-Jul-18 13:04 42.368967 -122.873546 248 1319ft 0kts

Navigation Log

Ident Type
Flight plan parsing failed, navigation log unavailable